sensor_id;sensor_type;location;lat;lon;timestamp;pressure;altitude;pressure_sealevel;temperature;humidity
48553;BME280;34335;51.566;6.994;2023-10-19T00:01:09;98851.72;;;10.77;100.00
48553;BME280;34335;51.566;6.994;2023-10-19T00:03:35;98858.06;;;10.97;100.00
48553;BME280;34335;51.566;6.994;2023-10-19T00:06:01;98847.38;;;10.78;100.00
48553;BME280;34335;51.566;6.994;2023-10-19T00:08:26;98848.16;;;10.81;100.00
48553;BME280;34335;51.566;6.994;2023-10-19T00:11:01;98842.94;;;10.81;100.00
48553;BME280;34335;51.566;6.994;2023-10-19T00:13:32;98842.81;;;10.86;100.00
48553;BME280;34335;51.566;6.994;2023-10-19T00:16:01;98846.16;;;10.89;100.00
48553;BME280;34335;51.566;6.994;2023-10-19T00:18:32;98845.19;;;10.92;100.00
48553;BME280;34335;51.566;6.994;2023-10-19T00:20:59;98847.75;;;10.94;100.00
48553;BME280;34335;51.566;6.994;2023-10-19T00:23:32;98842.53;;;10.94;100.00
48553;BME280;34335;51.566;6.994;2023-10-19T00:25:59;98832.69;;;11.03;100.00
48553;BME280;34335;51.566;6.994;2023-10-19T00:28:25;98825.88;;;10.99;100.00
48553;BME280;34335;51.566;6.994;2023-10-19T00:30:53;98820.53;;;11.04;100.00
48553;BME280;34335;51.566;6.994;2023-10-19T00:33:19;98821.13;;;11.12;100.00
48553;BME280;34335;51.566;6.994;2023-10-19T00:35:54;98823.19;;;11.02;100.00
48553;BME280;34335;51.566;6.994;2023-10-19T00:38:24;98820.34;;;11.10;100.00
48553;BME280;34335;51.566;6.994;2023-10-19T00:40:56;98809.66;;;11.18;100.00
48553;BME280;34335;51.566;6.994;2023-10-19T00:43:26;98815.75;;;11.17;100.00
48553;BME280;34335;51.566;6.994;2023-10-19T00:45:52;98819.06;;;11.22;100.00
48553;BME280;34335;51.566;6.994;2023-10-19T00:48:18;98816.66;;;11.16;100.00
48553;BME280;34335;51.566;6.994;2023-10-19T00:50:48;98820.19;;;11.15;100.00
48553;BME280;34335;51.566;6.994;2023-10-19T00:53:18;98823.28;;;11.51;100.00
48553;BME280;34335;51.566;6.994;2023-10-19T00:55:44;98816.34;;;11.50;100.00
48553;BME280;34335;51.566;6.994;2023-10-19T00:58:10;98810.75;;;11.37;100.00
48553;BME280;34335;51.566;6.994;2023-10-19T01:00:44;98810.97;;;11.31;100.00
48553;BME280;34335;51.566;6.994;2023-10-19T01:03:11;98799.84;;;11.51;100.00
48553;BME280;34335;51.566;6.994;2023-10-19T01:05:41;98799.56;;;11.59;100.00
48553;BME280;34335;51.566;6.994;2023-10-19T01:08:13;98799.31;;;11.42;100.00
48553;BME280;34335;51.566;6.994;2023-10-19T01:11:04;98797.88;;;11.33;100.00
48553;BME280;34335;51.566;6.994;2023-10-19T01:13:31;98802.25;;;11.32;100.00
48553;BME280;34335;51.566;6.994;2023-10-19T01:15:59;98795.28;;;11.58;100.00
48553;BME280;34335;51.566;6.994;2023-10-19T01:18:25;98802.25;;;11.58;100.00
48553;BME280;34335;51.566;6.994;2023-10-19T01:20:57;98798.28;;;11.47;100.00
48553;BME280;34335;51.566;6.994;2023-10-19T01:23:27;98790.13;;;11.57;100.00
48553;BME280;34335;51.566;6.994;2023-10-19T01:25:57;98796.66;;;11.43;100.00
48553;BME280;34335;51.566;6.994;2023-10-19T01:28:30;98801.44;;;11.79;100.00
48553;BME280;34335;51.566;6.994;2023-10-19T01:31:19;98791.94;;;11.29;100.00
48553;BME280;34335;51.566;6.994;2023-10-19T01:33:58;98796.59;;;11.45;100.00
48553;BME280;34335;51.566;6.994;2023-10-19T01:36:24;98789.28;;;11.31;100.00
48553;BME280;34335;51.566;6.994;2023-10-19T01:38:51;98786.06;;;11.73;100.00
48553;BME280;34335;51.566;6.994;2023-10-19T01:41:21;98782.88;;;11.65;100.00
48553;BME280;34335;51.566;6.994;2023-10-19T01:43:48;98787.56;;;11.55;100.00
48553;BME280;34335;51.566;6.994;2023-10-19T01:46:16;98785.22;;;11.96;100.00
48553;BME280;34335;51.566;6.994;2023-10-19T01:48:53;98786.41;;;11.64;100.00
48553;BME280;34335;51.566;6.994;2023-10-19T01:51:23;98774.88;;;11.46;100.00
48553;BME280;34335;51.566;6.994;2023-10-19T01:53:50;98783.56;;;11.70;100.00
48553;BME280;34335;51.566;6.994;2023-10-19T01:56:16;98776.63;;;11.71;100.00
48553;BME280;34335;51.566;6.994;2023-10-19T01:58:43;98785.38;;;11.92;100.00
48553;BME280;34335;51.566;6.994;2023-10-19T02:01:09;98781.13;;;11.89;100.00
48553;BME280;34335;51.566;6.994;2023-10-19T02:03:41;98786.72;;;11.78;100.00
48553;BME280;34335;51.566;6.994;2023-10-19T02:06:11;98784.88;;;11.82;100.00
48553;BME280;34335;51.566;6.994;2023-10-19T02:08:48;98782.84;;;11.90;100.00
48553;BME280;34335;51.566;6.994;2023-10-19T02:11:21;98769.09;;;11.87;100.00
48553;BME280;34335;51.566;6.994;2023-10-19T02:13:48;98774.22;;;11.64;100.00
48553;BME280;34335;51.566;6.994;2023-10-19T02:16:17;98758.31;;;11.96;100.00
48553;BME280;34335;51.566;6.994;2023-10-19T02:18:47;98760.97;;;12.18;100.00
48553;BME280;34335;51.566;6.994;2023-10-19T02:21:12;98753.97;;;12.20;100.00
48553;BME280;34335;51.566;6.994;2023-10-19T02:23:39;98759.47;;;12.12;100.00
48553;BME280;34335;51.566;6.994;2023-10-19T02:26:05;98762.88;;;12.14;100.00
48553;BME280;34335;51.566;6.994;2023-10-19T02:28:31;98751.00;;;12.29;100.00
48553;BME280;34335;51.566;6.994;2023-10-19T02:30:58;98756.84;;;12.12;100.00
48553;BME280;34335;51.566;6.994;2023-10-19T02:33:29;98753.34;;;12.58;100.00
48553;BME280;34335;51.566;6.994;2023-10-19T02:35:55;98743.75;;;12.36;100.00
48553;BME280;34335;51.566;6.994;2023-10-19T02:38:22;98748.69;;;12.22;100.00
48553;BME280;34335;51.566;6.994;2023-10-19T02:40:47;98744.44;;;12.19;100.00
48553;BME280;34335;51.566;6.994;2023-10-19T02:43:12;98750.22;;;12.70;100.00
48553;BME280;34335;51.566;6.994;2023-10-19T02:45:38;98749.75;;;12.60;100.00
48553;BME280;34335;51.566;6.994;2023-10-19T02:48:03;98737.59;;;12.39;100.00
48553;BME280;34335;51.566;6.994;2023-10-19T02:50:29;98738.75;;;12.54;100.00
48553;BME280;34335;51.566;6.994;2023-10-19T02:52:55;98737.09;;;12.51;100.00
48553;BME280;34335;51.566;6.994;2023-10-19T02:55:20;98736.09;;;12.33;100.00
48553;BME280;34335;51.566;6.994;2023-10-19T02:57:49;98737.94;;;12.52;100.00
48553;BME280;34335;51.566;6.994;2023-10-19T03:00:15;98740.91;;;12.65;100.00
48553;BME280;34335;51.566;6.994;2023-10-19T03:02:45;98738.13;;;12.47;100.00
48553;BME280;34335;51.566;6.994;2023-10-19T03:05:10;98737.69;;;12.58;100.00
48553;BME280;34335;51.566;6.994;2023-10-19T03:07:45;98734.47;;;12.73;100.00
48553;BME280;34335;51.566;6.994;2023-10-19T03:10:11;98733.97;;;12.63;100.00
48553;BME280;34335;51.566;6.994;2023-10-19T03:12:50;98730.75;;;12.79;100.00
48553;BME280;34335;51.566;6.994;2023-10-19T03:15:17;98731.66;;;12.78;100.00
48553;BME280;34335;51.566;6.994;2023-10-19T03:17:46;98731.44;;;12.62;100.00
48553;BME280;34335;51.566;6.994;2023-10-19T03:20:11;98733.53;;;12.74;100.00
48553;BME280;34335;51.566;6.994;2023-10-19T03:22:37;98736.88;;;12.78;100.00
48553;BME280;34335;51.566;6.994;2023-10-19T03:25:05;98730.75;;;12.79;100.00
48553;BME280;34335;51.566;6.994;2023-10-19T03:27:51;98733.91;;;12.65;100.00
48553;BME280;34335;51.566;6.994;2023-10-19T03:30:16;98734.59;;;12.70;100.00
48553;BME280;34335;51.566;6.994;2023-10-19T03:32:44;98729.28;;;12.72;100.00
48553;BME280;34335;51.566;6.994;2023-10-19T03:35:09;98724.22;;;12.69;100.00
48553;BME280;34335;51.566;6.994;2023-10-19T03:37:40;98724.41;;;12.85;100.00
48553;BME280;34335;51.566;6.994;2023-10-19T03:40:06;98725.31;;;13.04;100.00
48553;BME280;34335;51.566;6.994;2023-10-19T03:42:34;98729.84;;;13.01;100.00
48553;BME280;34335;51.566;6.994;2023-10-19T03:45:06;98725.59;;;12.77;100.00
48553;BME280;34335;51.566;6.994;2023-10-19T03:47:38;98721.41;;;12.94;100.00
48553;BME280;34335;51.566;6.994;2023-10-19T03:50:05;98713.38;;;12.99;100.00
48553;BME280;34335;51.566;6.994;2023-10-19T03:52:37;98710.72;;;12.80;100.00
48553;BME280;34335;51.566;6.994;2023-10-19T03:55:06;98708.03;;;12.81;100.00
48553;BME280;34335;51.566;6.994;2023-10-19T03:57:41;98711.66;;;12.99;100.00
48553;BME280;34335;51.566;6.994;2023-10-19T04:00:11;98713.38;;;12.99;100.00
48553;BME280;34335;51.566;6.994;2023-10-19T04:02:41;98706.03;;;13.08;100.00
48553;BME280;34335;51.566;6.994;2023-10-19T04:05:10;98700.16;;;13.03;100.00
48553;BME280;34335;51.566;6.994;2023-10-19T04:07:39;98709.81;;;13.01;100.00
48553;BME280;34335;51.566;6.994;2023-10-19T04:10:05;98703.16;;;12.94;100.00
48553;BME280;34335;51.566;6.994;2023-10-19T04:12:37;98705.84;;;13.13;100.00
48553;BME280;34335;51.566;6.994;2023-10-19T04:15:07;98704.31;;;13.28;100.00
48553;BME280;34335;51.566;6.994;2023-10-19T04:17:46;98701.69;;;13.28;100.00
48553;BME280;34335;51.566;6.994;2023-10-19T04:20:21;98701.19;;;13.20;100.00
48553;BME280;34335;51.566;6.994;2023-10-19T04:22:48;98691.66;;;13.19;100.00
48553;BME280;34335;51.566;6.994;2023-10-19T04:25:15;98696.38;;;13.11;100.00
48553;BME280;34335;51.566;6.994;2023-10-19T04:27:41;98694.91;;;13.24;100.00
48553;BME280;34335;51.566;6.994;2023-10-19T04:30:11;98687.06;;;13.05;100.00
48553;BME280;34335;51.566;6.994;2023-10-19T04:32:52;98688.56;;;13.30;100.00
48553;BME280;34335;51.566;6.994;2023-10-19T04:35:18;98685.28;;;13.05;100.00
48553;BME280;34335;51.566;6.994;2023-10-19T04:37:50;98680.53;;;13.15;100.00
48553;BME280;34335;51.566;6.994;2023-10-19T04:40:20;98683.47;;;13.07;100.00
48553;BME280;34335;51.566;6.994;2023-10-19T04:42:46;98680.94;;;13.25;100.00
48553;BME280;34335;51.566;6.994;2023-10-19T04:45:12;98685.88;;;13.12;100.00
48553;BME280;34335;51.566;6.994;2023-10-19T04:47:38;98681.81;;;13.25;100.00
48553;BME280;34335;51.566;6.994;2023-10-19T04:50:05;98688.56;;;13.11;100.00
48553;BME280;34335;51.566;6.994;2023-10-19T04:52:31;98683.91;;;13.17;100.00
48553;BME280;34335;51.566;6.994;2023-10-19T04:54:57;98688.41;;;13.14;100.00
48553;BME280;34335;51.566;6.994;2023-10-19T04:57:23;98695.41;;;13.13;100.00
48553;BME280;34335;51.566;6.994;2023-10-19T04:59:48;98688.59;;;13.09;100.00
48553;BME280;34335;51.566;6.994;2023-10-19T05:02:14;98689.19;;;13.16;100.00
48553;BME280;34335;51.566;6.994;2023-10-19T05:04:39;98687.16;;;13.22;100.00
48553;BME280;34335;51.566;6.994;2023-10-19T05:07:06;98687.31;;;13.38;100.00
48553;BME280;34335;51.566;6.994;2023-10-19T05:09:32;98688.06;;;13.42;100.00
48553;BME280;34335;51.566;6.994;2023-10-19T05:11:57;98683.84;;;13.39;100.00
48553;BME280;34335;51.566;6.994;2023-10-19T05:14:22;98685.91;;;13.31;100.00
48553;BME280;34335;51.566;6.994;2023-10-19T05:16:48;98694.66;;;13.30;100.00
48553;BME280;34335;51.566;6.994;2023-10-19T05:19:14;98694.78;;;13.27;100.00
48553;BME280;34335;51.566;6.994;2023-10-19T05:21:39;98695.78;;;13.24;100.00
48553;BME280;34335;51.566;6.994;2023-10-19T05:24:05;98696.47;;;13.28;100.00
48553;BME280;34335;51.566;6.994;2023-10-19T05:26:33;98693.94;;;13.27;100.00
48553;BME280;34335;51.566;6.994;2023-10-19T05:28:58;98697.81;;;13.18;100.00
48553;BME280;34335;51.566;6.994;2023-10-19T05:31:24;98701.19;;;13.20;100.00
48553;BME280;34335;51.566;6.994;2023-10-19T05:33:49;98699.41;;;13.20;100.00
48553;BME280;34335;51.566;6.994;2023-10-19T05:36:14;98691.38;;;13.25;100.00
48553;BME280;34335;51.566;6.994;2023-10-19T05:38:40;98697.81;;;13.37;100.00
48553;BME280;34335;51.566;6.994;2023-10-19T05:41:05;98697.19;;;13.32;100.00
48553;BME280;34335;51.566;6.994;2023-10-19T05:43:33;98699.28;;;13.44;100.00
48553;BME280;34335;51.566;6.994;2023-10-19T05:45:59;98695.22;;;13.37;100.00
48553;BME280;34335;51.566;6.994;2023-10-19T05:48:25;98697.78;;;13.38;100.00
48553;BME280;34335;51.566;6.994;2023-10-19T05:50:50;98705.22;;;13.27;100.00
48553;BME280;34335;51.566;6.994;2023-10-19T05:53:15;98700.69;;;13.12;100.00
48553;BME280;34335;51.566;6.994;2023-10-19T05:55:44;98705.63;;;13.18;100.00
48553;BME280;34335;51.566;6.994;2023-10-19T05:58:10;98705.63;;;13.18;100.00
48553;BME280;34335;51.566;6.994;2023-10-19T06:00:35;98706.31;;;13.02;100.00
48553;BME280;34335;51.566;6.994;2023-10-19T06:03:00;98704.00;;;13.15;100.00
48553;BME280;34335;51.566;6.994;2023-10-19T06:05:26;98708.56;;;13.10;100.00
48553;BME280;34335;51.566;6.994;2023-10-19T06:07:51;98710.97;;;13.15;100.00
48553;BME280;34335;51.566;6.994;2023-10-19T06:10:19;98715.88;;;13.02;100.00
48553;BME280;34335;51.566;6.994;2023-10-19T06:12:46;98717.38;;;13.07;100.00
48553;BME280;34335;51.566;6.994;2023-10-19T06:15:13;98725.22;;;13.07;100.00
48553;BME280;34335;51.566;6.994;2023-10-19T06:17:39;98729.72;;;13.04;100.00
48553;BME280;34335;51.566;6.994;2023-10-19T06:20:07;98724.94;;;13.14;100.00
48553;BME280;34335;51.566;6.994;2023-10-19T06:22:35;98732.25;;;13.05;100.00
48553;BME280;34335;51.566;6.994;2023-10-19T06:25:01;98731.47;;;13.03;100.00
48553;BME280;34335;51.566;6.994;2023-10-19T06:27:26;98732.44;;;13.01;100.00
48553;BME280;34335;51.566;6.994;2023-10-19T06:29:51;98731.41;;;13.05;100.00
48553;BME280;34335;51.566;6.994;2023-10-19T06:32:18;98730.03;;;13.17;100.00
48553;BME280;34335;51.566;6.994;2023-10-19T06:34:43;98731.00;;;13.14;100.00
48553;BME280;34335;51.566;6.994;2023-10-19T06:37:08;98741.25;;;13.19;100.00
48553;BME280;34335;51.566;6.994;2023-10-19T06:39:36;98735.66;;;13.07;100.00
48553;BME280;34335;51.566;6.994;2023-10-19T06:42:06;98744.34;;;13.08;100.00
48553;BME280;34335;51.566;6.994;2023-10-19T06:44:34;98738.91;;;13.13;100.00
48553;BME280;34335;51.566;6.994;2023-10-19T06:46:59;98745.06;;;13.12;100.00
48553;BME280;34335;51.566;6.994;2023-10-19T06:49:25;98742.69;;;13.05;100.00
48553;BME280;34335;51.566;6.994;2023-10-19T06:51:50;98740.88;;;13.07;100.00
48553;BME280;34335;51.566;6.994;2023-10-19T06:54:15;98745.97;;;13.11;100.00
48553;BME280;34335;51.566;6.994;2023-10-19T06:56:41;98751.31;;;13.07;100.00
48553;BME280;34335;51.566;6.994;2023-10-19T06:59:06;98757.84;;;13.18;100.00
48553;BME280;34335;51.566;6.994;2023-10-19T07:01:32;98749.22;;;13.16;100.00
48553;BME280;34335;51.566;6.994;2023-10-19T07:03:57;98750.00;;;13.18;100.00
48553;BME280;34335;51.566;6.994;2023-10-19T07:06:23;98750.00;;;13.18;100.00
48553;BME280;34335;51.566;6.994;2023-10-19T07:08:49;98750.13;;;13.15;100.00
48553;BME280;34335;51.566;6.994;2023-10-19T07:11:14;98756.31;;;13.12;100.00
48553;BME280;34335;51.566;6.994;2023-10-19T07:13:39;98756.91;;;13.19;100.00
48553;BME280;34335;51.566;6.994;2023-10-19T07:16:05;98758.47;;;13.23;100.00
48553;BME280;34335;51.566;6.994;2023-10-19T07:18:31;98753.84;;;13.30;100.00
48553;BME280;34335;51.566;6.994;2023-10-19T07:20:56;98750.44;;;13.28;100.00
48553;BME280;34335;51.566;6.994;2023-10-19T07:23:35;98750.72;;;13.42;100.00
48553;BME280;34335;51.566;6.994;2023-10-19T07:26:03;98756.38;;;13.52;100.00
48553;BME280;34335;51.566;6.994;2023-10-19T07:28:28;98762.53;;;13.51;100.00
48553;BME280;34335;51.566;6.994;2023-10-19T07:30:55;98759.56;;;13.38;100.00
48553;BME280;34335;51.566;6.994;2023-10-19T07:33:21;98757.31;;;13.51;100.00
48553;BME280;34335;51.566;6.994;2023-10-19T07:35:47;98757.94;;;13.56;100.00
48553;BME280;34335;51.566;6.994;2023-10-19T07:38:16;98773.91;;;13.50;100.00
48553;BME280;34335;51.566;6.994;2023-10-19T07:40:43;98764.00;;;13.56;100.00
48553;BME280;34335;51.566;6.994;2023-10-19T07:43:09;98762.19;;;13.59;100.00
48553;BME280;34335;51.566;6.994;2023-10-19T07:45:35;98772.84;;;13.54;100.00
48553;BME280;34335;51.566;6.994;2023-10-19T07:48:02;98773.75;;;13.53;100.00
48553;BME280;34335;51.566;6.994;2023-10-19T07:50:38;98779.16;;;13.69;100.00
48553;BME280;34335;51.566;6.994;2023-10-19T07:53:06;98774.91;;;13.66;100.00
48553;BME280;34335;51.566;6.994;2023-10-19T07:55:31;98771.44;;;13.66;100.00
48553;BME280;34335;51.566;6.994;2023-10-19T07:57:57;98777.66;;;13.63;100.00
48553;BME280;34335;51.566;6.994;2023-10-19T08:00:25;98774.84;;;13.68;100.00
48553;BME280;34335;51.566;6.994;2023-10-19T08:02:52;98770.47;;;13.68;100.00
48553;BME280;34335;51.566;6.994;2023-10-19T08:05:18;98771.88;;;13.76;100.00
48553;BME280;34335;51.566;6.994;2023-10-19T08:07:44;98766.03;;;13.90;100.00
48553;BME280;34335;51.566;6.994;2023-10-19T08:10:10;98763.50;;;13.88;100.00
48553;BME280;34335;51.566;6.994;2023-10-19T08:12:37;98758.81;;;13.95;100.00
48553;BME280;34335;51.566;6.994;2023-10-19T08:15:04;98765.97;;;14.10;100.00
48553;BME280;34335;51.566;6.994;2023-10-19T08:17:31;98760.53;;;14.15;100.00
48553;BME280;34335;51.566;6.994;2023-10-19T08:19:59;98760.44;;;14.16;100.00
48553;BME280;34335;51.566;6.994;2023-10-19T08:22:26;98765.44;;;14.21;100.00
48553;BME280;34335;51.566;6.994;2023-10-19T08:24:52;98760.91;;;14.25;100.00
48553;BME280;34335;51.566;6.994;2023-10-19T08:27:17;98765.09;;;14.29;100.00
48553;BME280;34335;51.566;6.994;2023-10-19T08:29:42;98766.59;;;14.34;100.00
48553;BME280;34335;51.566;6.994;2023-10-19T08:32:08;98771.06;;;14.50;100.00
48553;BME280;34335;51.566;6.994;2023-10-19T08:34:34;98765.00;;;14.49;100.00
48553;BME280;34335;51.566;6.994;2023-10-19T08:37:01;98761.59;;;14.67;100.00
48553;BME280;34335;51.566;6.994;2023-10-19T08:39:27;98778.13;;;14.67;100.00
48553;BME280;34335;51.566;6.994;2023-10-19T08:41:53;98774.84;;;14.62;100.00
48553;BME280;34335;51.566;6.994;2023-10-19T08:44:20;98768.09;;;14.58;100.00
48553;BME280;34335;51.566;6.994;2023-10-19T08:46:45;98769.00;;;14.76;100.00
48553;BME280;34335;51.566;6.994;2023-10-19T08:49:15;98769.47;;;15.02;100.00
48553;BME280;34335;51.566;6.994;2023-10-19T08:51:45;98763.91;;;14.90;100.00
48553;BME280;34335;51.566;6.994;2023-10-19T08:54:14;98761.63;;;15.02;100.00
48553;BME280;34335;51.566;6.994;2023-10-19T08:56:41;98757.22;;;14.67;100.00
48553;BME280;34335;51.566;6.994;2023-10-19T08:59:10;98756.75;;;14.94;100.00
48553;BME280;34335;51.566;6.994;2023-10-19T09:01:36;98749.44;;;15.01;100.00
48553;BME280;34335;51.566;6.994;2023-10-19T09:04:02;98751.22;;;15.18;100.00
48553;BME280;34335;51.566;6.994;2023-10-19T09:06:28;98750.28;;;15.36;100.00
48553;BME280;34335;51.566;6.994;2023-10-19T09:08:56;98745.31;;;15.48;100.00
48553;BME280;34335;51.566;6.994;2023-10-19T09:11:23;98742.06;;;15.42;100.00
48553;BME280;34335;51.566;6.994;2023-10-19T09:13:51;98740.34;;;15.59;100.00
48553;BME280;34335;51.566;6.994;2023-10-19T09:16:19;98738.03;;;15.53;100.00
48553;BME280;34335;51.566;6.994;2023-10-19T09:18:45;98735.22;;;15.73;100.00
48553;BME280;34335;51.566;6.994;2023-10-19T09:21:11;98732.94;;;15.67;100.00
48553;BME280;34335;51.566;6.994;2023-10-19T09:23:52;98734.34;;;15.73;100.00
48553;BME280;34335;51.566;6.994;2023-10-19T09:26:19;98733.63;;;15.71;100.00
48553;BME280;34335;51.566;6.994;2023-10-19T09:28:48;98734.59;;;15.68;100.00
48553;BME280;34335;51.566;6.994;2023-10-19T09:31:13;98734.59;;;15.68;100.00
48553;BME280;34335;51.566;6.994;2023-10-19T09:33:40;98728.50;;;15.85;100.00
48553;BME280;34335;51.566;6.994;2023-10-19T09:36:07;98718.78;;;15.87;100.00
48553;BME280;34335;51.566;6.994;2023-10-19T09:38:45;98722.84;;;16.09;100.00
48553;BME280;34335;51.566;6.994;2023-10-19T09:41:15;98724.28;;;16.15;100.00
48553;BME280;34335;51.566;6.994;2023-10-19T09:43:45;98731.28;;;16.30;100.00
48553;BME280;34335;51.566;6.994;2023-10-19T09:46:12;98729.44;;;16.16;100.00
48553;BME280;34335;51.566;6.994;2023-10-19T09:48:42;98725.63;;;16.38;100.00
48553;BME280;34335;51.566;6.994;2023-10-19T09:51:08;98734.13;;;16.58;100.00
48553;BME280;34335;51.566;6.994;2023-10-19T09:53:34;98731.53;;;16.42;100.00
48553;BME280;34335;51.566;6.994;2023-10-19T09:56:01;98725.66;;;16.52;100.00
48553;BME280;34335;51.566;6.994;2023-10-19T09:58:40;98726.38;;;16.71;100.00
48553;BME280;34335;51.566;6.994;2023-10-19T10:01:08;98729.19;;;16.98;100.00
48553;BME280;34335;51.566;6.994;2023-10-19T10:03:44;98727.78;;;16.92;100.00
48553;BME280;34335;51.566;6.994;2023-10-19T10:06:10;98719.44;;;17.00;100.00
48553;BME280;34335;51.566;6.994;2023-10-19T10:08:38;98719.94;;;17.07;100.00
48553;BME280;34335;51.566;6.994;2023-10-19T10:11:18;98714.69;;;17.07;100.00
48553;BME280;34335;51.566;6.994;2023-10-19T10:13:44;98720.66;;;16.94;100.00
48553;BME280;34335;51.566;6.994;2023-10-19T10:16:14;98717.75;;;16.99;100.00
48553;BME280;34335;51.566;6.994;2023-10-19T10:18:41;98725.19;;;17.07;100.00
48553;BME280;34335;51.566;6.994;2023-10-19T10:21:13;98714.13;;;17.16;100.00
48553;BME280;34335;51.566;6.994;2023-10-19T10:23:54;98718.16;;;17.22;100.00
48553;BME280;34335;51.566;6.994;2023-10-19T10:26:22;98717.50;;;17.33;100.00
48553;BME280;34335;51.566;6.994;2023-10-19T10:29:08;98705.78;;;17.38;100.00
48553;BME280;34335;51.566;6.994;2023-10-19T10:31:47;98709.72;;;17.60;100.00
48553;BME280;34335;51.566;6.994;2023-10-19T10:37:04;98710.66;;;17.59;100.00
48553;BME280;34335;51.566;6.994;2023-10-19T10:39:33;98710.97;;;17.69;100.00
48553;BME280;34335;51.566;6.994;2023-10-19T10:42:00;98712.31;;;17.89;100.00
48553;BME280;34335;51.566;6.994;2023-10-19T10:44:45;98710.88;;;18.12;100.00
48553;BME280;34335;51.566;6.994;2023-10-19T10:47:15;98704.97;;;18.76;100.00
48553;BME280;34335;51.566;6.994;2023-10-19T10:52:32;98695.97;;;18.53;100.00
48553;BME280;34335;51.566;6.994;2023-10-19T10:55:06;98695.66;;;18.17;100.00
48553;BME280;34335;51.566;6.994;2023-10-19T10:57:32;98702.25;;;18.37;100.00
48553;BME280;34335;51.566;6.994;2023-10-19T11:00:03;98693.91;;;18.58;100.00
48553;BME280;34335;51.566;6.994;2023-10-19T11:02:46;98687.41;;;18.77;100.00
48553;BME280;34335;51.566;6.994;2023-10-19T11:05:13;98696.44;;;18.85;100.00
48553;BME280;34335;51.566;6.994;2023-10-19T11:07:39;98690.72;;;19.19;100.00
48553;BME280;34335;51.566;6.994;2023-10-19T11:10:05;98678.19;;;19.36;100.00
48553;BME280;34335;51.566;6.994;2023-10-19T11:12:31;98674.16;;;19.43;100.00
48553;BME280;34335;51.566;6.994;2023-10-19T11:14:59;98677.34;;;19.22;100.00
48553;BME280;34335;51.566;6.994;2023-10-19T11:17:25;98680.06;;;19.34;100.00
48553;BME280;34335;51.566;6.994;2023-10-19T11:19:56;98672.59;;;19.40;100.00
48553;BME280;34335;51.566;6.994;2023-10-19T11:22:22;98678.47;;;19.05;100.00
48553;BME280;34335;51.566;6.994;2023-10-19T11:24:50;98688.19;;;19.30;100.00
48553;BME280;34335;51.566;6.994;2023-10-19T11:27:25;98687.25;;;19.06;100.00
48553;BME280;34335;51.566;6.994;2023-10-19T11:29:58;98685.13;;;19.37;100.00
48553;BME280;34335;51.566;6.994;2023-10-19T11:32:24;98674.28;;;19.41;100.00
48553;BME280;34335;51.566;6.994;2023-10-19T11:34:52;98667.19;;;20.05;100.00
48553;BME280;34335;51.566;6.994;2023-10-19T11:37:17;98654.63;;;20.20;100.00
48553;BME280;34335;51.566;6.994;2023-10-19T11:39:43;98649.41;;;20.31;100.00
48553;BME280;34335;51.566;6.994;2023-10-19T11:42:08;98648.78;;;20.28;100.00
48553;BME280;34335;51.566;6.994;2023-10-19T11:44:35;98641.44;;;20.55;100.00
48553;BME280;34335;51.566;6.994;2023-10-19T11:47:01;98637.41;;;20.63;100.00
48553;BME280;34335;51.566;6.994;2023-10-19T11:49:27;98633.63;;;21.12;100.00
48553;BME280;34335;51.566;6.994;2023-10-19T11:51:52;98627.03;;;20.84;100.00
48553;BME280;34335;51.566;6.994;2023-10-19T11:54:18;98625.47;;;20.81;100.00
48553;BME280;34335;51.566;6.994;2023-10-19T11:56:43;98624.13;;;20.76;100.00
48553;BME280;34335;51.566;6.994;2023-10-19T11:59:09;98624.03;;;21.34;100.00
48553;BME280;34335;51.566;6.994;2023-10-19T12:01:37;98625.13;;;21.31;100.00
48553;BME280;34335;51.566;6.994;2023-10-19T12:04:04;98617.28;;;21.41;100.00
48553;BME280;34335;51.566;6.994;2023-10-19T12:06:31;98616.94;;;20.89;100.00
48553;BME280;34335;51.566;6.994;2023-10-19T12:08:56;98623.06;;;21.12;100.00
48553;BME280;34335;51.566;6.994;2023-10-19T12:11:24;98616.97;;;20.65;100.00
48553;BME280;34335;51.566;6.994;2023-10-19T12:13:49;98620.78;;;20.85;100.00
48553;BME280;34335;51.566;6.994;2023-10-19T12:16:15;98613.47;;;20.53;100.00
48553;BME280;34335;51.566;6.994;2023-10-19T12:18:45;98608.97;;;20.78;100.00
48553;BME280;34335;51.566;6.994;2023-10-19T12:21:11;98617.28;;;20.37;100.00
48553;BME280;34335;51.566;6.994;2023-10-19T12:23:41;98625.16;;;20.62;100.00
48553;BME280;34335;51.566;6.994;2023-10-19T12:26:07;98625.50;;;20.57;100.00
48553;BME280;34335;51.566;6.994;2023-10-19T12:28:39;98627.06;;;20.60;100.00
48553;BME280;34335;51.566;6.994;2023-10-19T12:31:06;98628.81;;;20.36;100.00
48553;BME280;34335;51.566;6.994;2023-10-19T12:33:34;98626.59;;;20.30;100.00
48553;BME280;34335;51.566;6.994;2023-10-19T12:35:59;98625.69;;;20.78;100.00
48553;BME280;34335;51.566;6.994;2023-10-19T12:38:24;98637.09;;;20.43;100.00
48553;BME280;34335;51.566;6.994;2023-10-19T12:40:50;98634.41;;;19.83;100.00
48553;BME280;34335;51.566;6.994;2023-10-19T12:43:17;98639.84;;;20.42;100.00
48553;BME280;34335;51.566;6.994;2023-10-19T12:45:50;98644.47;;;20.02;100.00
48553;BME280;34335;51.566;6.994;2023-10-19T12:48:23;98643.47;;;19.92;100.00
48553;BME280;34335;51.566;6.994;2023-10-19T12:50:55;98646.03;;;19.68;100.00
48553;BME280;34335;51.566;6.994;2023-10-19T12:53:20;98636.19;;;19.96;100.00
48553;BME280;34335;51.566;6.994;2023-10-19T12:55:49;98630.19;;;19.93;100.00
48553;BME280;34335;51.566;6.994;2023-10-19T12:58:15;98634.88;;;19.64;100.00
48553;BME280;34335;51.566;6.994;2023-10-19T13:00:44;98624.75;;;19.71;100.00